Time;durP1;ratioP1;P1;durP2;ratioP2;P2;SDS_P1;SDS_P2;PMS_P1;PMS_P2;Temp;Humidity;BMP_temperature;BMP_pressure;BME280_temperature;BME280_humidity;BME280_pressure;Samples;Min_cycle;Max_cycle;Signal;HPM_P1;HPM_P2
2022/09/25 00:01:50;;;;;;;7.25;3.72;;;;;;;;;;5064548;28;20083;-67
2022/09/25 00:04:18;;;;;;;7.93;3.83;;;;;;;;;;5072624;28;20074;-67
2022/09/25 00:06:46;;;;;;;8.63;3.97;;;;;;;;;;5089779;28;20530;-67
2022/09/25 00:09:13;;;;;;;8.63;4.82;;;;;;;;;;5068479;28;20036;-67
2022/09/25 00:11:39;;;;;;;7.28;3.75;;;;;;;;;;5071458;28;20084;-68
2022/09/25 00:14:05;;;;;;;11.73;4.43;;;;;;;;;;5073068;28;20056;-67
2022/09/25 00:16:32;;;;;;;4.57;3.40;;;;;;;;;;5069908;28;20045;-67
2022/09/25 00:21:43;;;;;;;7.00;2.97;;;;;;;;;;5070441;28;20553;-67
2022/09/25 00:24:11;;;;;;;8.02;3.72;;;;;;;;;;5074373;28;20577;-67
2022/09/25 00:26:38;;;;;;;10.85;3.80;;;;;;;;;;5071154;28;20522;-67
2022/09/25 00:29:05;;;;;;;6.05;3.40;;;;;;;;;;5074019;28;20041;-67
2022/09/25 00:31:31;;;;;;;3.22;2.15;;;;;;;;;;5072192;28;20057;-67
2022/09/25 00:33:59;;;;;;;10.00;3.20;;;;;;;;;;5068158;28;20159;-67
2022/09/25 00:36:25;;;;;;;5.28;2.15;;;;;;;;;;5073082;28;20071;-68
2022/09/25 00:38:51;;;;;;;5.65;2.78;;;;;;;;;;5073596;28;20859;-68
2022/09/25 00:41:19;;;;;;;7.20;2.58;;;;;;;;;;5073096;28;20062;-68
2022/09/25 00:43:49;;;;;;;6.05;2.10;;;;;;;;;;5051048;28;20070;-68
2022/09/25 00:46:35;;;;;;;7.63;3.28;;;;;;;;;;5072480;28;20048;-68
2022/09/25 00:49:07;;;;;;;6.22;2.72;;;;;;;;;;5074761;28;20051;-68
2022/09/25 00:51:36;;;;;;;;;;;;;;;;;;5074544;28;20045;-68
2022/09/25 00:54:04;;;;;;;6.28;3.30;;;;;;;;;;5073654;28;19920;-68
2022/09/25 00:56:34;;;;;;;7.35;2.03;;;;;;;;;;5074740;28;20049;-68
2022/09/25 00:59:00;;;;;;;5.78;2.30;;;;;;;;;;5075909;28;20134;-68
2022/09/25 01:01:26;;;;;;;5.55;2.45;;;;;;;;;;5074440;28;20048;-68
2022/09/25 01:03:54;;;;;;;6.07;2.10;;;;;;;;;;5072796;28;20044;-68
2022/09/25 01:06:21;;;;;;;8.25;2.65;;;;;;;;;;5074119;28;20535;-68
2022/09/25 01:08:48;;;;;;;10.35;2.45;;;;;;;;;;5069118;28;20075;-68
2022/09/25 01:11:14;;;;;;;6.22;1.95;;;;;;;;;;5071461;28;20157;-68
2022/09/25 01:13:41;;;;;;;5.13;2.67;;;;;;;;;;5071022;28;20048;-68
2022/09/25 01:16:20;;;;;;;10.50;2.90;;;;;;;;;;5087614;28;20047;-68
2022/09/25 01:18:57;;;;;;;7.63;3.28;;;;;;;;;;5074053;28;20098;-67
2022/09/25 01:21:50;;;;;;;5.28;2.42;;;;;;;;;;5072702;28;20052;-67
2022/09/25 01:24:31;;;;;;;3.67;1.80;;;;;;;;;;5050689;28;20049;-67
2022/09/25 01:27:00;;;;;;;7.35;2.53;;;;;;;;;;5071823;28;20040;-67
2022/09/25 01:29:34;;;;;;;8.32;2.42;;;;;;;;;;5074553;28;20048;-67
2022/09/25 01:32:17;;;;;;;5.43;1.80;;;;;;;;;;5049814;28;20049;-67
2022/09/25 01:34:47;;;;;;;6.95;2.53;;;;;;;;;;5074148;28;20047;-68
2022/09/25 01:37:32;;;;;;;4.95;2.30;;;;;;;;;;5074142;28;20040;-67
2022/09/25 01:40:04;;;;;;;2.63;1.80;;;;;;;;;;5067746;28;20036;-67
2022/09/25 01:42:34;;;;;;;4.90;2.67;;;;;;;;;;5073968;28;20514;-67
2022/09/25 01:45:08;;;;;;;7.72;2.88;;;;;;;;;;5073247;28;20127;-67
2022/09/25 01:47:38;;;;;;;9.15;2.80;;;;;;;;;;5072301;28;20041;-67
2022/09/25 01:50:08;;;;;;;13.02;2.67;;;;;;;;;;5073031;28;20047;-67
2022/09/25 01:52:40;;;;;;;3.35;1.73;;;;;;;;;;5071734;28;20044;-67
2022/09/25 01:55:21;;;;;;;8.02;2.22;;;;;;;;;;5071047;28;20071;-67
2022/09/25 01:57:55;;;;;;;8.65;2.20;;;;;;;;;;5074258;28;20345;-67
2022/09/25 02:00:22;;;;;;;6.53;2.03;;;;;;;;;;5073706;28;20036;-67
2022/09/25 02:02:53;;;;;;;5.45;2.30;;;;;;;;;;5072758;28;20053;-67
2022/09/25 02:05:23;;;;;;;5.38;2.17;;;;;;;;;;5074618;28;20048;-67
2022/09/25 02:07:51;;;;;;;3.28;1.88;;;;;;;;;;5072978;28;20102;-68
2022/09/25 02:10:19;;;;;;;11.25;2.00;;;;;;;;;;5074654;28;20098;-67
2022/09/25 02:12:48;;;;;;;7.93;2.30;;;;;;;;;;5071341;28;20287;-67
2022/09/25 02:15:18;;;;;;;7.07;2.65;;;;;;;;;;5074514;28;20056;-67
2022/09/25 02:20:35;;;;;;;12.52;3.67;;;;;;;;;;5073431;28;20521;-67
2022/09/25 02:23:19;;;;;;;5.60;2.40;;;;;;;;;;5074180;28;20068;-67
2022/09/25 02:25:49;;;;;;;7.18;2.30;;;;;;;;;;5071776;28;20553;-67
2022/09/25 02:28:16;;;;;;;9.52;3.55;;;;;;;;;;5072376;28;20063;-68
2022/09/25 02:30:42;;;;;;;6.07;2.47;;;;;;;;;;5073294;28;20048;-67
2022/09/25 02:33:09;;;;;;;11.38;2.50;;;;;;;;;;5072632;28;20048;-68
2022/09/25 02:35:35;;;;;;;6.82;3.08;;;;;;;;;;5071286;28;20147;-68
2022/09/25 02:38:02;;;;;;;8.73;3.65;;;;;;;;;;5072330;28;20052;-67
2022/09/25 02:40:37;;;;;;;9.63;2.70;;;;;;;;;;5071918;28;20037;-67
2022/09/25 02:43:09;;;;;;;11.75;4.00;;;;;;;;;;5072719;28;20091;-67
2022/09/25 02:45:45;;;;;;;5.20;2.63;;;;;;;;;;5069875;28;20074;-67
2022/09/25 02:48:27;;;;;;;14.18;3.67;;;;;;;;;;5071616;28;20786;-67
2022/09/25 02:51:03;;;;;;;4.93;2.45;;;;;;;;;;5073549;28;20037;-67
2022/09/25 02:53:38;;;;;;;4.32;2.65;;;;;;;;;;5073991;28;20045;-67
2022/09/25 02:56:04;;;;;;;6.53;2.45;;;;;;;;;;5070048;28;20067;-68
2022/09/25 02:58:34;;;;;;;5.45;2.33;;;;;;;;;;5071729;28;20045;-67
2022/09/25 03:01:01;;;;;;;7.13;3.50;;;;;;;;;;5072844;28;20040;-67
2022/09/25 03:03:27;;;;;;;8.00;3.33;;;;;;;;;;5070530;28;20037;-67
2022/09/25 03:05:57;;;;;;;12.77;2.65;;;;;;;;;;5075285;28;20102;-67
2022/09/25 03:08:42;;;;;;;10.40;3.35;;;;;;;;;;5070903;28;20561;-68
2022/09/25 03:11:12;;;;;;;9.68;2.45;;;;;;;;;;5070403;28;20513;-67
2022/09/25 03:13:39;;;;;;;4.22;2.17;;;;;;;;;;5062379;28;20048;-67
2022/09/25 03:16:11;;;;;;;9.30;2.25;;;;;;;;;;5069458;28;20110;-67
2022/09/25 03:18:38;;;;;;;7.15;3.90;;;;;;;;;;5070163;28;20044;-67
2022/09/25 03:21:04;;;;;;;6.18;2.55;;;;;;;;;;5068639;28;20110;-67
2022/09/25 03:23:31;;;;;;;4.25;2.20;;;;;;;;;;5067032;28;20070;-67
2022/09/25 03:25:57;;;;;;;6.38;3.22;;;;;;;;;;5061873;28;20036;-67
2022/09/25 03:28:24;;;;;;;5.07;2.20;;;;;;;;;;5065191;28;20571;-67
2022/09/25 03:31:00;;;;;;;5.45;2.63;;;;;;;;;;5071828;28;20047;-67
2022/09/25 03:33:27;;;;;;;7.32;3.03;;;;;;;;;;5051788;28;20033;-68
2022/09/25 03:36:04;;;;;;;6.80;2.58;;;;;;;;;;5065152;28;20087;-68
2022/09/25 03:38:30;;;;;;;5.70;2.78;;;;;;;;;;5066522;28;20067;-67
2022/09/25 03:40:56;;;;;;;7.60;3.03;;;;;;;;;;5067641;28;20037;-68
2022/09/25 03:43:22;;;;;;;5.38;2.83;;;;;;;;;;5070210;28;20530;-67
2022/09/25 03:45:49;;;;;;;5.70;2.88;;;;;;;;;;5067207;28;20961;-67
2022/09/25 03:48:15;;;;;;;6.93;2.90;;;;;;;;;;5068447;28;20089;-67
2022/09/25 03:50:41;;;;;;;7.18;3.80;;;;;;;;;;5063392;28;20044;-67
2022/09/25 03:53:07;;;;;;;10.00;3.17;;;;;;;;;;5057974;28;20041;-68
2022/09/25 03:55:33;;;;;;;9.45;5.05;;;;;;;;;;5066125;28;20044;-67
2022/09/25 03:57:59;;;;;;;6.18;4.57;;;;;;;;;;5067687;28;20056;-67
2022/09/25 04:00:25;;;;;;;11.93;4.68;;;;;;;;;;5064317;28;20041;-68
2022/09/25 04:02:51;;;;;;;8.55;3.15;;;;;;;;;;5061594;28;20044;-67
2022/09/25 04:05:18;;;;;;;8.63;4.35;;;;;;;;;;5066555;28;20098;-67
2022/09/25 04:07:45;;;;;;;5.70;3.05;;;;;;;;;;5066258;28;20142;-67
2022/09/25 04:10:11;;;;;;;8.63;4.28;;;;;;;;;;5061380;28;20075;-67
2022/09/25 04:12:37;;;;;;;8.80;2.85;;;;;;;;;;5066191;28;20052;-67
2022/09/25 04:15:03;;;;;;;8.77;4.63;;;;;;;;;;5067702;28;20929;-67
2022/09/25 04:17:29;;;;;;;5.65;3.40;;;;;;;;;;5067482;28;20539;-67
2022/09/25 04:19:55;;;;;;;8.13;4.32;;;;;;;;;;5068567;28;20083;-67
2022/09/25 04:22:21;;;;;;;8.20;4.65;;;;;;;;;;5066074;28;20134;-67
2022/09/25 04:24:47;;;;;;;6.72;3.63;;;;;;;;;;5046354;28;20037;-67
2022/09/25 04:27:14;;;;;;;7.07;3.88;;;;;;;;;;5061093;28;20867;-67
2022/09/25 04:29:41;;;;;;;12.50;4.72;;;;;;;;;;5065607;28;20603;-68
2022/09/25 04:35:02;;;;;;;6.78;3.65;;;;;;;;;;5008273;28;20042;-67
2022/09/25 04:37:28;;;;;;;8.70;4.05;;;;;;;;;;5046521;28;20502;-67
2022/09/25 04:39:55;;;;;;;11.20;4.00;;;;;;;;;;5067966;28;20882;-67
2022/09/25 04:42:23;;;;;;;10.50;6.05;;;;;;;;;;5062566;28;20087;-67
2022/09/25 04:44:50;;;;;;;5.68;3.50;;;;;;;;;;5066518;28;20214;-67
2022/09/25 04:47:16;;;;;;;9.75;4.78;;;;;;;;;;5070644;28;20060;-67
2022/09/25 04:49:42;;;;;;;10.80;4.95;;;;;;;;;;5069170;28;20052;-67
2022/09/25 04:52:09;;;;;;;8.70;4.57;;;;;;;;;;5069671;28;20590;-67
2022/09/25 04:54:35;;;;;;;10.32;4.25;;;;;;;;;;5069897;28;20294;-67
2022/09/25 04:57:01;;;;;;;6.93;4.55;;;;;;;;;;5069695;28;20120;-67
2022/09/25 04:59:28;;;;;;;14.65;6.80;;;;;;;;;;5069416;28;20037;-67
2022/09/25 05:01:54;;;;;;;8.23;4.80;;;;;;;;;;5067735;28;20044;-67
2022/09/25 05:04:20;;;;;;;7.70;4.28;;;;;;;;;;5074448;28;20055;-68
2022/09/25 05:06:46;;;;;;;9.55;4.07;;;;;;;;;;5073623;28;20127;-67
2022/09/25 05:09:12;;;;;;;6.78;4.82;;;;;;;;;;5072765;28;20076;-68
2022/09/25 05:11:38;;;;;;;8.35;4.60;;;;;;;;;;5073725;28;20048;-68
2022/09/25 05:14:04;;;;;;;8.23;4.00;;;;;;;;;;5070685;28;20045;-68
2022/09/25 05:16:30;;;;;;;10.48;4.40;;;;;;;;;;5072645;28;20892;-67
2022/09/25 05:18:56;;;;;;;11.23;5.35;;;;;;;;;;5073454;28;20550;-68
2022/09/25 05:21:23;;;;;;;10.60;5.30;;;;;;;;;;5071864;28;20538;-67
2022/09/25 05:23:49;;;;;;;10.38;4.32;;;;;;;;;;5074310;28;20052;-67
2022/09/25 05:26:15;;;;;;;13.38;4.30;;;;;;;;;;5074439;28;20040;-68
2022/09/25 05:28:41;;;;;;;5.75;4.13;;;;;;;;;;5074301;28;20045;-68
2022/09/25 05:31:07;;;;;;;10.27;4.80;;;;;;;;;;5072458;28;20048;-68
2022/09/25 05:33:34;;;;;;;11.48;5.55;;;;;;;;;;5074145;28;20051;-67
2022/09/25 05:36:03;;;;;;;8.52;4.30;;;;;;;;;;5075079;28;20044;-67
2022/09/25 05:38:29;;;;;;;12.43;5.18;;;;;;;;;;5070188;28;20107;-67
2022/09/25 05:40:55;;;;;;;12.60;5.78;;;;;;;;;;5070217;28;20045;-67
2022/09/25 05:43:22;;;;;;;7.40;3.83;;;;;;;;;;5072922;28;20052;-68
2022/09/25 05:45:54;;;;;;;8.48;4.30;;;;;;;;;;5071346;28;20048;-67
2022/09/25 05:48:20;;;;;;;9.43;4.40;;;;;;;;;;5072531;28;20071;-67
2022/09/25 05:50:52;;;;;;;5.90;4.63;;;;;;;;;;5073482;28;20044;-67
2022/09/25 05:53:19;;;;;;;6.72;4.30;;;;;;;;;;5071435;28;20037;-67
2022/09/25 05:55:58;;;;;;;9.38;4.20;;;;;;;;;;5070223;28;20079;-67
2022/09/25 05:58:29;;;;;;;7.97;4.60;;;;;;;;;;5071969;28;20044;-67
2022/09/25 06:00:55;;;;;;;10.27;4.72;;;;;;;;;;5068993;28;20576;-67
2022/09/25 06:03:21;;;;;;;8.43;4.70;;;;;;;;;;5064292;28;20392;-67
2022/09/25 06:05:48;;;;;;;6.45;4.22;;;;;;;;;;5071539;28;20510;-67
2022/09/25 06:08:14;;;;;;;7.95;4.45;;;;;;;;;;5076653;28;20047;-67
2022/09/25 06:10:41;;;;;;;9.35;5.22;;;;;;;;;;5064663;28;20049;-67
2022/09/25 06:13:08;;;;;;;6.63;4.45;;;;;;;;;;5072393;28;20775;-68
2022/09/25 06:15:40;;;;;;;8.75;4.43;;;;;;;;;;5072321;28;20213;-67
2022/09/25 06:18:07;;;;;;;8.25;3.92;;;;;;;;;;5070323;28;20040;-67
2022/09/25 06:20:33;;;;;;;13.63;6.45;;;;;;;;;;5065126;28;20036;-67
2022/09/25 06:23:00;;;;;;;10.18;5.00;;;;;;;;;;5072031;28;20036;-68
2022/09/25 06:25:27;;;;;;;10.60;5.18;;;;;;;;;;5071361;28;20591;-66
2022/09/25 06:27:53;;;;;;;21.55;6.25;;;;;;;;;;5069259;28;20631;-67
2022/09/25 06:30:20;;;;;;;10.45;6.78;;;;;;;;;;5070115;28;20036;-67
2022/09/25 06:32:47;;;;;;;11.02;5.97;;;;;;;;;;5072360;28;20560;-67
2022/09/25 06:35:13;;;;;;;12.93;4.95;;;;;;;;;;5073664;28;20131;-67
2022/09/25 06:37:39;;;;;;;11.10;4.85;;;;;;;;;;5074066;28;20545;-68
2022/09/25 06:40:06;;;;;;;11.85;6.18;;;;;;;;;;5072018;28;20530;-67
2022/09/25 06:42:34;;;;;;;14.43;5.30;;;;;;;;;;5066589;28;20044;-67
2022/09/25 06:45:00;;;;;;;6.85;3.72;;;;;;;;;;5070626;28;20179;-67
2022/09/25 06:47:26;;;;;;;13.18;3.78;;;;;;;;;;5073041;28;20048;-67
2022/09/25 06:49:52;;;;;;;14.25;4.40;;;;;;;;;;5064272;28;20045;-67
2022/09/25 06:52:19;;;;;;;9.15;4.57;;;;;;;;;;5069325;28;20044;-67
2022/09/25 06:54:45;;;;;;;6.75;3.67;;;;;;;;;;5072711;28;20045;-67
2022/09/25 06:57:11;;;;;;;6.88;2.97;;;;;;;;;;5071481;28;20520;-68
2022/09/25 06:59:37;;;;;;;11.95;3.88;;;;;;;;;;5070853;28;20136;-68
2022/09/25 07:03:43;;;;;;;7.60;3.90;;;;;;;;;;5071501;28;20047;-68
2022/09/25 07:04:50;;;;;;;7.20;3.33;;;;;;;;;;5068110;28;20080;-68
2022/09/25 07:07:20;;;;;;;10.23;4.35;;;;;;;;;;5068924;28;20041;-66
2022/09/25 07:09:49;;;;;;;10.75;4.68;;;;;;;;;;5072324;28;20041;-65
2022/09/25 07:12:17;;;;;;;14.50;4.47;;;;;;;;;;5069971;28;20541;-65
2022/09/25 07:14:45;;;;;;;6.38;4.63;;;;;;;;;;5069572;28;20043;-66
2022/09/25 07:17:11;;;;;;;8.88;4.13;;;;;;;;;;5070140;28;20094;-66
2022/09/25 07:19:37;;;;;;;9.50;3.53;;;;;;;;;;5061369;28;20127;-68
2022/09/25 07:22:03;;;;;;;6.68;3.50;;;;;;;;;;5069783;28;20049;-66
2022/09/25 07:24:30;;;;;;;9.80;4.15;;;;;;;;;;5070986;28;20510;-66
2022/09/25 07:26:56;;;;;;;9.38;5.00;;;;;;;;;;5063768;28;20041;-66
2022/09/25 07:29:22;;;;;;;10.18;3.97;;;;;;;;;;5074366;28;20075;-66
2022/09/25 07:31:48;;;;;;;8.40;4.20;;;;;;;;;;5064529;28;20058;-66
2022/09/25 07:34:15;;;;;;;12.88;4.72;;;;;;;;;;5066267;28;20037;-66
2022/09/25 07:36:41;;;;;;;8.15;4.45;;;;;;;;;;5068592;28;20072;-66
2022/09/25 07:39:08;;;;;;;10.30;4.55;;;;;;;;;;5065680;28;20094;-66
2022/09/25 07:41:35;;;;;;;9.43;4.75;;;;;;;;;;5062332;28;20036;-66
2022/09/25 07:44:01;;;;;;;11.30;5.05;;;;;;;;;;5070969;28;20064;-66
2022/09/25 07:46:30;;;;;;;10.73;5.60;;;;;;;;;;5070840;28;20040;-66
2022/09/25 07:48:56;;;;;;;7.35;5.40;;;;;;;;;;5069905;28;20044;-66
2022/09/25 07:51:23;;;;;;;8.70;4.57;;;;;;;;;;5072142;28;20032;-66
2022/09/25 07:53:49;;;;;;;10.80;5.60;;;;;;;;;;5074141;28;20051;-66
2022/09/25 07:56:16;;;;;;;6.30;3.97;;;;;;;;;;5088338;28;20037;-66
2022/09/25 07:58:42;;;;;;;11.63;3.28;;;;;;;;;;5072179;28;20535;-66
2022/09/25 08:01:10;;;;;;;9.88;3.85;;;;;;;;;;5071569;28;20048;-66
2022/09/25 08:03:37;;;;;;;6.13;3.28;;;;;;;;;;5068679;28;20033;-67
2022/09/25 08:06:03;;;;;;;8.00;3.63;;;;;;;;;;5068237;28;20040;-67
2022/09/25 08:08:29;;;;;;;9.98;3.58;;;;;;;;;;5070008;28;20040;-68
2022/09/25 08:11:02;;;;;;;8.77;3.17;;;;;;;;;;5071521;28;20040;-67
2022/09/25 08:13:31;;;;;;;8.02;3.75;;;;;;;;;;5070522;28;20041;-67
2022/09/25 08:15:57;;;;;;;7.95;3.13;;;;;;;;;;5068524;28;20055;-67
2022/09/25 08:18:23;;;;;;;9.13;3.65;;;;;;;;;;5069993;28;20159;-67
2022/09/25 08:20:49;;;;;;;6.70;2.92;;;;;;;;;;5048704;28;20066;-68
2022/09/25 08:23:15;;;;;;;13.30;3.35;;;;;;;;;;5071933;28;20055;-67
2022/09/25 08:25:41;;;;;;;11.25;5.35;;;;;;;;;;5070790;28;20056;-67
2022/09/25 08:28:07;;;;;;;4.15;2.65;;;;;;;;;;5069864;28;20099;-67
2022/09/25 08:30:33;;;;;;;7.65;3.22;;;;;;;;;;5069804;28;20110;-67
2022/09/25 08:32:59;;;;;;;8.15;3.15;;;;;;;;;;5071338;28;20170;-67
2022/09/25 08:35:27;;;;;;;5.75;2.40;;;;;;;;;;5066410;28;20051;-67
2022/09/25 08:37:53;;;;;;;5.03;2.42;;;;;;;;;;5071588;28;20084;-68
2022/09/25 08:40:21;;;;;;;7.60;3.33;;;;;;;;;;5064680;28;20032;-69
2022/09/25 08:42:49;;;;;;;10.63;3.70;;;;;;;;;;5073677;28;20044;-68
2022/09/25 08:51:04;;;;;;;6.45;2.35;;;;;;;;;;5076221;28;20489;-68
2022/09/25 08:53:30;;;;;;;4.03;2.20;;;;;;;;;;5075201;28;20064;-69
2022/09/25 08:56:14;;;;;;;9.25;2.25;;;;;;;;;;5075664;28;20169;-68
2022/09/25 08:58:46;;;;;;;10.45;3.28;;;;;;;;;;5072658;28;20033;-68
2022/09/25 09:01:18;;;;;;;4.80;2.20;;;;;;;;;;5068663;28;20698;-68
2022/09/25 09:03:47;;;;;;;9.48;2.80;;;;;;;;;;5073615;28;20041;-68
2022/09/25 09:06:14;;;;;;;11.88;2.30;;;;;;;;;;5075350;28;22371;-68
2022/09/25 09:08:43;;;;;;;8.88;2.17;;;;;;;;;;5075642;28;20045;-68
2022/09/25 09:11:15;;;;;;;7.47;3.00;;;;;;;;;;5075730;28;20083;-68
2022/09/25 09:13:41;;;;;;;8.65;2.15;;;;;;;;;;5091269;28;20045;-72
2022/09/25 09:16:11;;;;;;;2.85;1.55;;;;;;;;;;5075864;28;20084;-67
2022/09/25 09:18:38;;;;;;;4.68;1.45;;;;;;;;;;5072776;28;20041;-67
2022/09/25 09:21:13;;;;;;;5.35;1.48;;;;;;;;;;5073930;28;20102;-68
2022/09/25 09:23:51;;;;;;;9.75;2.78;;;;;;;;;;5066196;28;20076;-68
2022/09/25 09:26:30;;;;;;;2.40;1.15;;;;;;;;;;5064013;28;20758;-70
2022/09/25 09:29:08;;;;;;;2.45;1.20;;;;;;;;;;5064902;28;20527;-69
2022/09/25 09:31:57;;;;;;;3.10;1.75;;;;;;;;;;5066165;28;20042;-70
2022/09/25 09:34:31;;;;;;;4.10;1.58;;;;;;;;;;5067257;28;20072;-67
2022/09/25 09:37:01;;;;;;;3.00;1.70;;;;;;;;;;5065903;28;20041;-68
2022/09/25 09:39:34;;;;;;;5.25;1.33;;;;;;;;;;5035870;28;20049;-67
2022/09/25 09:42:00;;;;;;;4.97;1.58;;;;;;;;;;5064316;28;20038;-67
2022/09/25 09:44:29;;;;;;;5.00;1.58;;;;;;;;;;5064577;28;20125;-68
2022/09/25 09:46:59;;;;;;;3.53;1.85;;;;;;;;;;5036792;28;20053;-67
2022/09/25 09:49:34;;;;;;;5.57;1.20;;;;;;;;;;5066755;28;20045;-67
2022/09/25 09:52:08;;;;;;;3.00;0.95;;;;;;;;;;5067865;28;20065;-68
2022/09/25 09:54:53;;;;;;;3.15;1.30;;;;;;;;;;5069325;28;20037;-69
2022/09/25 09:57:25;;;;;;;3.70;1.73;;;;;;;;;;5035987;28;20155;-67
2022/09/25 10:00:01;;;;;;;5.30;1.40;;;;;;;;;;5066663;28;20045;-67
2022/09/25 10:02:27;;;;;;;2.58;1.13;;;;;;;;;;5067555;28;20069;-68
2022/09/25 10:04:55;;;;;;;4.22;1.13;;;;;;;;;;5066538;28;20041;-68
2022/09/25 10:07:22;;;;;;;8.75;3.78;;;;;;;;;;5035896;28;20120;-69
2022/09/25 10:09:52;;;;;;;2.88;1.08;;;;;;;;;;5067590;28;20099;-67
2022/09/25 10:12:30;;;;;;;2.22;1.40;;;;;;;;;;5066225;28;20133;-68
2022/09/25 10:14:58;;;;;;;1.35;0.95;;;;;;;;;;5067035;28;20065;-68
2022/09/25 10:17:25;;;;;;;6.55;2.33;;;;;;;;;;5066815;28;20105;-69
2022/09/25 10:19:54;;;;;;;3.45;1.88;;;;;;;;;;5036323;28;21205;-68
2022/09/25 10:22:24;;;;;;;3.78;1.20;;;;;;;;;;5066867;28;20053;-68
2022/09/25 10:24:50;;;;;;;7.28;2.10;;;;;;;;;;5067990;28;20508;-68
2022/09/25 10:27:19;;;;;;;4.22;1.65;;;;;;;;;;5067354;28;20045;-68
2022/09/25 10:29:46;;;;;;;1.98;0.80;;;;;;;;;;5026321;28;20099;-68
2022/09/25 10:32:12;;;;;;;2.72;0.90;;;;;;;;;;5059815;28;21192;-68
2022/09/25 10:34:39;;;;;;;4.97;1.30;;;;;;;;;;5022891;28;20038;-68
2022/09/25 10:37:20;;;;;;;4.93;1.67;;;;;;;;;;5059032;28;20054;-68
2022/09/25 10:39:59;;;;;;;4.53;1.65;;;;;;;;;;5030991;28;20041;-68
2022/09/25 10:42:39;;;;;;;10.93;1.58;;;;;;;;;;5033658;28;20045;-68
2022/09/25 10:45:24;;;;;;;9.82;1.65;;;;;;;;;;5024840;28;20488;-68
2022/09/25 10:51:08;;;;;;;3.87;1.20;;;;;;;;;;4980059;28;20050;-68
2022/09/25 10:53:34;;;;;;;3.80;1.40;;;;;;;;;;5027994;28;20056;-68
2022/09/25 10:56:08;;;;;;;4.55;1.13;;;;;;;;;;5033051;28;20108;-68
2022/09/25 10:58:42;;;;;;;2.67;1.40;;;;;;;;;;5064198;28;20040;-68
2022/09/25 11:01:12;;;;;;;8.25;2.85;;;;;;;;;;5042122;28;20049;-69
2022/09/25 11:03:44;;;;;;;3.00;0.80;;;;;;;;;;5066507;28;20045;-69
2022/09/25 11:06:20;;;;;;;3.97;2.08;;;;;;;;;;5031141;28;20133;-68
2022/09/25 11:08:48;;;;;;;8.45;2.15;;;;;;;;;;5064797;28;20125;-68
2022/09/25 11:11:20;;;;;;;2.35;0.88;;;;;;;;;;5063811;28;20047;-70
2022/09/25 11:13:46;;;;;;;;;;;;;;;;;;5061954;28;20056;-69
2022/09/25 11:16:12;;;;;;;6.13;2.25;;;;;;;;;;5060778;28;19947;-69
2022/09/25 11:18:42;;;;;;;3.47;0.95;;;;;;;;;;5056594;28;20145;-69
2022/09/25 11:21:17;;;;;;;3.33;1.15;;;;;;;;;;5062352;28;20957;-69
2022/09/25 11:23:52;;;;;;;3.03;1.75;;;;;;;;;;5079127;28;20103;-70
2022/09/25 11:26:20;;;;;;;3.88;1.27;;;;;;;;;;5049294;28;20214;-69
2022/09/25 11:28:49;;;;;;;5.00;1.23;;;;;;;;;;5043667;28;20057;-69
2022/09/25 11:31:15;;;;;;;2.70;1.20;;;;;;;;;;5068368;28;20051;-69
2022/09/25 11:33:55;;;;;;;3.83;0.90;;;;;;;;;;5046220;28;20458;-68
2022/09/25 11:36:25;;;;;;;2.55;1.00;;;;;;;;;;5050348;28;20536;-69
2022/09/25 11:41:44;;;;;;;2.17;1.05;;;;;;;;;;5053820;28;20052;-69
2022/09/25 11:44:32;;;;;;;4.78;1.10;;;;;;;;;;5049862;28;20041;-69
2022/09/25 11:47:05;;;;;;;3.20;0.88;;;;;;;;;;5056873;28;20061;-70
2022/09/25 11:49:35;;;;;;;3.17;1.00;;;;;;;;;;5049523;28;20088;-69
2022/09/25 11:52:17;;;;;;;3.05;0.70;;;;;;;;;;5058402;28;20692;-70
2022/09/25 11:54:52;;;;;;;2.95;1.15;;;;;;;;;;5051180;28;20637;-71
2022/09/25 11:57:19;;;;;;;2.65;0.90;;;;;;;;;;5064640;28;20081;-73
2022/09/25 12:00:04;;;;;;;1.70;0.80;;;;;;;;;;5070821;28;20515;-69
2022/09/25 12:02:45;;;;;;;3.22;0.93;;;;;;;;;;5053473;28;20045;-68
2022/09/25 12:05:14;;;;;;;4.20;1.00;;;;;;;;;;5051778;28;20045;-68
2022/09/25 12:07:40;;;;;;;1.85;1.15;;;;;;;;;;5061898;28;20034;-68
2022/09/25 12:10:14;;;;;;;1.60;0.98;;;;;;;;;;5047701;28;20045;-67
2022/09/25 12:12:40;;;;;;;1.35;0.75;;;;;;;;;;5049436;28;20041;-68
2022/09/25 12:15:09;;;;;;;1.63;0.90;;;;;;;;;;5063564;28;20063;-68
2022/09/25 12:17:35;;;;;;;4.40;0.82;;;;;;;;;;5060772;28;20948;-68
2022/09/25 12:20:19;;;;;;;1.50;0.75;;;;;;;;;;5052496;28;20045;-69
2022/09/25 12:22:51;;;;;;;3.17;1.08;;;;;;;;;;5060559;28;20130;-68
2022/09/25 12:25:36;;;;;;;1.25;0.77;;;;;;;;;;5060315;28;20088;-69
2022/09/25 12:28:02;;;;;;;1.70;0.70;;;;;;;;;;5061141;28;20045;-69
2022/09/25 12:30:44;;;;;;;1.58;0.93;;;;;;;;;;5067557;28;20041;-69
2022/09/25 12:33:33;;;;;;;1.50;0.73;;;;;;;;;;5053618;28;20048;-70
2022/09/25 12:35:59;;;;;;;1.35;0.95;;;;;;;;;;5050972;28;20115;-68
2022/09/25 12:38:37;;;;;;;3.92;1.80;;;;;;;;;;5059406;28;20551;-67
2022/09/25 12:41:10;;;;;;;1.52;0.70;;;;;;;;;;5055055;28;20048;-67
2022/09/25 12:44:03;;;;;;;7.60;1.77;;;;;;;;;;5050570;28;20132;-68
2022/09/25 12:46:33;;;;;;;3.28;0.73;;;;;;;;;;5048612;28;20569;-68
2022/09/25 12:49:04;;;;;;;2.00;0.70;;;;;;;;;;5052238;28;20057;-68
2022/09/25 12:51:33;;;;;;;1.65;0.68;;;;;;;;;;5053966;28;20632;-68
2022/09/25 12:54:06;;;;;;;0.45;0.45;;;;;;;;;;5056427;28;20038;-68
2022/09/25 12:56:36;;;;;;;4.18;1.13;;;;;;;;;;5059099;28;20033;-68
2022/09/25 12:59:25;;;;;;;1.63;0.60;;;;;;;;;;5080366;28;21148;-68
2022/09/25 13:02:24;;;;;;;1.17;0.80;;;;;;;;;;5049490;28;20071;-68
2022/09/25 13:04:53;;;;;;;2.58;0.93;;;;;;;;;;5031252;28;20115;-68
2022/09/25 13:07:23;;;;;;;2.80;0.88;;;;;;;;;;5052594;28;21166;-68
2022/09/25 13:09:50;;;;;;;1.90;0.73;;;;;;;;;;5054114;28;20539;-72
2022/09/25 13:12:25;;;;;;;4.85;1.17;;;;;;;;;;5067656;28;20045;-70
2022/09/25 13:14:54;;;;;;;2.38;0.70;;;;;;;;;;5052387;28;20037;-67
2022/09/25 13:17:21;;;;;;;1.27;0.80;;;;;;;;;;5051016;28;20596;-68
2022/09/25 13:19:47;;;;;;;4.10;1.63;;;;;;;;;;5049131;28;20058;-68
2022/09/25 13:22:23;;;;;;;1.40;0.82;;;;;;;;;;5063176;28;20049;-67
2022/09/25 13:24:51;;;;;;;1.00;0.70;;;;;;;;;;5062182;28;20045;-67
2022/09/25 13:27:21;;;;;;;1.92;0.70;;;;;;;;;;5050036;28;20033;-67
2022/09/25 13:30:05;;;;;;;1.60;1.05;;;;;;;;;;5060574;28;20167;-67
2022/09/25 13:32:37;;;;;;;2.72;0.65;;;;;;;;;;5062930;28;20098;-67
2022/09/25 13:35:07;;;;;;;2.57;0.97;;;;;;;;;;5059766;28;20504;-67
2022/09/25 13:37:35;;;;;;;5.18;0.65;;;;;;;;;;5052666;28;20434;-67
2022/09/25 13:42:46;;;;;;;2.22;0.90;;;;;;;;;;5051118;28;20053;-68
2022/09/25 13:45:21;;;;;;;0.98;0.50;;;;;;;;;;5046686;28;20118;-73
2022/09/25 13:47:48;;;;;;;1.40;0.70;;;;;;;;;;5053367;28;20076;-68
2022/09/25 13:50:23;;;;;;;3.10;1.25;;;;;;;;;;5050655;28;20041;-68
2022/09/25 13:53:15;;;;;;;4.82;1.98;;;;;;;;;;5052318;28;20900;-68
2022/09/25 13:55:41;;;;;;;5.88;0.88;;;;;;;;;;5052456;28;20045;-68
2022/09/25 13:58:18;;;;;;;2.05;0.85;;;;;;;;;;5048215;28;20044;-68
2022/09/25 14:00:55;;;;;;;3.67;0.88;;;;;;;;;;5063390;28;20041;-68
2022/09/25 14:03:44;;;;;;;1.05;0.82;;;;;;;;;;5051030;28;20041;-68
2022/09/25 14:06:19;;;;;;;1.17;0.80;;;;;;;;;;5063432;28;20055;-68
2022/09/25 14:08:46;;;;;;;2.50;0.88;;;;;;;;;;5052744;28;20563;-68
2022/09/25 14:11:15;;;;;;;4.70;0.90;;;;;;;;;;5059940;28;20044;-68
2022/09/25 14:13:45;;;;;;;1.38;0.90;;;;;;;;;;5052656;28;20546;-68
2022/09/25 14:16:18;;;;;;;2.67;0.90;;;;;;;;;;5054581;28;20535;-68
2022/09/25 14:18:46;;;;;;;2.60;1.00;;;;;;;;;;5063490;28;20584;-68
2022/09/25 14:21:14;;;;;;;2.28;0.85;;;;;;;;;;5052038;28;20043;-68
2022/09/25 14:23:49;;;;;;;2.45;0.70;;;;;;;;;;5059446;28;20925;-68
2022/09/25 14:26:25;;;;;;;2.40;1.50;;;;;;;;;;5050688;28;20037;-69
2022/09/25 14:28:53;;;;;;;0.82;0.65;;;;;;;;;;5063454;28;20060;-69
2022/09/25 14:31:33;;;;;;;0.80;0.55;;;;;;;;;;5044976;28;20071;-68
2022/09/25 14:34:08;;;;;;;1.15;0.70;;;;;;;;;;5052686;28;20048;-68
2022/09/25 14:36:53;;;;;;;5.43;1.08;;;;;;;;;;5056276;28;20064;-68
2022/09/25 14:39:38;;;;;;;1.67;0.68;;;;;;;;;;5053569;28;20157;-69
2022/09/25 14:42:23;;;;;;;1.30;0.70;;;;;;;;;;5058386;28;20111;-69
2022/09/25 14:45:08;;;;;;;5.72;1.00;;;;;;;;;;5051685;28;20049;-68
2022/09/25 14:47:36;;;;;;;1.00;0.60;;;;;;;;;;5057109;28;20053;-68
2022/09/25 14:50:03;;;;;;;1.65;1.00;;;;;;;;;;5052092;28;20037;-68
2022/09/25 14:52:31;;;;;;;3.20;0.60;;;;;;;;;;5051526;28;20036;-68
2022/09/25 14:54:59;;;;;;;0.90;0.68;;;;;;;;;;5060214;28;20056;-68
2022/09/25 14:57:33;;;;;;;0.60;0.60;;;;;;;;;;5057020;28;20041;-69
2022/09/25 15:00:06;;;;;;;1.50;0.90;;;;;;;;;;5053387;28;20072;-73
2022/09/25 15:02:37;;;;;;;1.30;0.70;;;;;;;;;;5052001;28;20099;-69
2022/09/25 15:05:25;;;;;;;2.63;0.95;;;;;;;;;;5062347;28;21388;-68
2022/09/25 15:07:51;;;;;;;5.00;0.98;;;;;;;;;;5054859;28;20049;-71
2022/09/25 15:10:34;;;;;;;0.82;0.65;;;;;;;;;;5060061;28;20076;-69
2022/09/25 15:13:08;;;;;;;1.42;0.70;;;;;;;;;;5047302;28;20057;-72
2022/09/25 15:15:35;;;;;;;2.58;0.88;;;;;;;;;;5056611;28;20639;-68
2022/09/25 15:18:01;;;;;;;0.98;0.55;;;;;;;;;;5044609;28;20900;-68
2022/09/25 15:20:29;;;;;;;1.50;0.95;;;;;;;;;;5045270;28;20053;-68
2022/09/25 15:22:57;;;;;;;2.05;0.95;;;;;;;;;;5051779;28;20527;-68